sensor_id;sensor_type;location;lat;lon;timestamp;P1;durP1;ratioP1;P2;durP2;ratioP2
82558;SDS011;72227;42.004;21.364;2023-11-19T00:00:50;5.35;;;2.15;;
82558;SDS011;72227;42.004;21.364;2023-11-19T00:03:16;4.38;;;2.33;;
82558;SDS011;72227;42.004;21.364;2023-11-19T00:05:44;5.22;;;2.45;;
82558;SDS011;72227;42.004;21.364;2023-11-19T00:08:11;4.15;;;2.80;;
82558;SDS011;72227;42.004;21.364;2023-11-19T00:10:37;4.03;;;1.92;;
82558;SDS011;72227;42.004;21.364;2023-11-19T00:13:03;5.07;;;2.42;;
82558;SDS011;72227;42.004;21.364;2023-11-19T00:15:35;4.63;;;1.70;;
82558;SDS011;72227;42.004;21.364;2023-11-19T00:18:01;3.97;;;1.77;;
82558;SDS011;72227;42.004;21.364;2023-11-19T00:20:29;6.57;;;2.85;;
82558;SDS011;72227;42.004;21.364;2023-11-19T00:22:55;4.35;;;2.50;;
82558;SDS011;72227;42.004;21.364;2023-11-19T00:25:22;5.07;;;2.75;;
82558;SDS011;72227;42.004;21.364;2023-11-19T00:27:49;4.32;;;2.60;;
82558;SDS011;72227;42.004;21.364;2023-11-19T00:30:15;4.45;;;2.15;;
82558;SDS011;72227;42.004;21.364;2023-11-19T00:32:42;4.03;;;2.88;;
82558;SDS011;72227;42.004;21.364;2023-11-19T00:35:08;3.45;;;2.00;;
82558;SDS011;72227;42.004;21.364;2023-11-19T00:37:39;6.20;;;2.40;;
82558;SDS011;72227;42.004;21.364;2023-11-19T00:40:05;4.82;;;1.80;;
82558;SDS011;72227;42.004;21.364;2023-11-19T00:42:31;5.43;;;2.47;;
82558;SDS011;72227;42.004;21.364;2023-11-19T00:44:57;3.80;;;1.70;;
82558;SDS011;72227;42.004;21.364;2023-11-19T00:47:24;2.88;;;1.38;;
82558;SDS011;72227;42.004;21.364;2023-11-19T00:49:50;4.00;;;1.40;;
82558;SDS011;72227;42.004;21.364;2023-11-19T00:52:16;5.35;;;1.92;;
82558;SDS011;72227;42.004;21.364;2023-11-19T00:54:42;4.00;;;2.47;;
82558;SDS011;72227;42.004;21.364;2023-11-19T00:57:09;5.05;;;3.13;;
82558;SDS011;72227;42.004;21.364;2023-11-19T00:59:35;4.05;;;2.15;;
82558;SDS011;72227;42.004;21.364;2023-11-19T01:02:01;3.88;;;1.83;;
82558;SDS011;72227;42.004;21.364;2023-11-19T01:04:34;4.05;;;1.73;;
82558;SDS011;72227;42.004;21.364;2023-11-19T01:07:03;5.00;;;2.40;;
82558;SDS011;72227;42.004;21.364;2023-11-19T01:09:33;5.35;;;2.92;;
82558;SDS011;72227;42.004;21.364;2023-11-19T01:11:59;6.28;;;2.33;;
82558;SDS011;72227;42.004;21.364;2023-11-19T01:14:26;5.07;;;2.47;;
82558;SDS011;72227;42.004;21.364;2023-11-19T01:16:52;4.95;;;2.33;;
82558;SDS011;72227;42.004;21.364;2023-11-19T01:19:21;7.43;;;4.30;;
82558;SDS011;72227;42.004;21.364;2023-11-19T01:21:48;4.20;;;2.60;;
82558;SDS011;72227;42.004;21.364;2023-11-19T01:24:14;3.92;;;2.05;;
82558;SDS011;72227;42.004;21.364;2023-11-19T01:26:40;4.70;;;2.58;;
82558;SDS011;72227;42.004;21.364;2023-11-19T01:29:10;4.18;;;2.10;;
82558;SDS011;72227;42.004;21.364;2023-11-19T01:31:39;4.55;;;2.88;;
82558;SDS011;72227;42.004;21.364;2023-11-19T01:34:05;4.07;;;1.92;;
82558;SDS011;72227;42.004;21.364;2023-11-19T01:36:31;4.72;;;2.45;;
82558;SDS011;72227;42.004;21.364;2023-11-19T01:38:57;4.32;;;2.40;;
82558;SDS011;72227;42.004;21.364;2023-11-19T01:41:24;3.88;;;2.08;;
82558;SDS011;72227;42.004;21.364;2023-11-19T01:43:50;3.78;;;1.98;;
82558;SDS011;72227;42.004;21.364;2023-11-19T01:46:16;4.57;;;2.17;;
82558;SDS011;72227;42.004;21.364;2023-11-19T01:48:44;5.00;;;2.45;;
82558;SDS011;72227;42.004;21.364;2023-11-19T01:51:11;3.88;;;1.83;;
82558;SDS011;72227;42.004;21.364;2023-11-19T01:53:38;4.35;;;1.90;;
82558;SDS011;72227;42.004;21.364;2023-11-19T01:56:06;5.95;;;2.38;;
82558;SDS011;72227;42.004;21.364;2023-11-19T01:58:35;4.72;;;2.22;;
82558;SDS011;72227;42.004;21.364;2023-11-19T02:04:21;3.83;;;2.17;;
82558;SDS011;72227;42.004;21.364;2023-11-19T02:06:48;4.47;;;2.45;;
82558;SDS011;72227;42.004;21.364;2023-11-19T02:11:47;5.88;;;1.83;;
82558;SDS011;72227;42.004;21.364;2023-11-19T02:14:16;4.38;;;2.58;;
82558;SDS011;72227;42.004;21.364;2023-11-19T02:16:43;4.03;;;2.13;;
82558;SDS011;72227;42.004;21.364;2023-11-19T02:19:09;4.78;;;2.63;;
82558;SDS011;72227;42.004;21.364;2023-11-19T02:21:36;6.28;;;2.35;;
82558;SDS011;72227;42.004;21.364;2023-11-19T02:24:05;4.50;;;2.45;;
82558;SDS011;72227;42.004;21.364;2023-11-19T02:29:27;4.45;;;2.25;;
82558;SDS011;72227;42.004;21.364;2023-11-19T02:31:53;5.65;;;3.13;;
82558;SDS011;72227;42.004;21.364;2023-11-19T02:34:21;5.03;;;2.88;;
82558;SDS011;72227;42.004;21.364;2023-11-19T02:36:47;4.95;;;2.45;;
82558;SDS011;72227;42.004;21.364;2023-11-19T02:39:14;4.82;;;2.10;;
82558;SDS011;72227;42.004;21.364;2023-11-19T02:41:46;4.82;;;2.72;;
82558;SDS011;72227;42.004;21.364;2023-11-19T02:44:19;5.15;;;2.50;;
82558;SDS011;72227;42.004;21.364;2023-11-19T02:46:45;4.20;;;2.45;;
82558;SDS011;72227;42.004;21.364;2023-11-19T02:49:13;5.55;;;2.65;;
82558;SDS011;72227;42.004;21.364;2023-11-19T02:54:36;5.22;;;1.92;;
82558;SDS011;72227;42.004;21.364;2023-11-19T02:57:02;6.38;;;3.20;;
82558;SDS011;72227;42.004;21.364;2023-11-19T02:59:29;5.10;;;1.73;;
82558;SDS011;72227;42.004;21.364;2023-11-19T03:02:04;4.38;;;2.35;;
82558;SDS011;72227;42.004;21.364;2023-11-19T03:04:32;4.47;;;2.45;;
82558;SDS011;72227;42.004;21.364;2023-11-19T03:06:58;4.32;;;2.80;;
82558;SDS011;72227;42.004;21.364;2023-11-19T03:09:25;5.13;;;2.47;;
82558;SDS011;72227;42.004;21.364;2023-11-19T03:11:51;4.07;;;2.58;;
82558;SDS011;72227;42.004;21.364;2023-11-19T03:14:17;4.88;;;3.00;;
82558;SDS011;72227;42.004;21.364;2023-11-19T03:16:55;4.60;;;2.55;;
82558;SDS011;72227;42.004;21.364;2023-11-19T03:19:21;4.90;;;2.25;;
82558;SDS011;72227;42.004;21.364;2023-11-19T03:21:47;4.80;;;2.30;;
82558;SDS011;72227;42.004;21.364;2023-11-19T03:24:13;4.45;;;2.15;;
82558;SDS011;72227;42.004;21.364;2023-11-19T03:26:40;4.82;;;3.15;;
82558;SDS011;72227;42.004;21.364;2023-11-19T03:29:07;5.88;;;2.72;;
82558;SDS011;72227;42.004;21.364;2023-11-19T03:31:34;5.10;;;3.20;;
82558;SDS011;72227;42.004;21.364;2023-11-19T03:34:00;5.93;;;3.00;;
82558;SDS011;72227;42.004;21.364;2023-11-19T03:36:31;4.13;;;1.77;;
82558;SDS011;72227;42.004;21.364;2023-11-19T03:38:57;4.95;;;2.38;;
82558;SDS011;72227;42.004;21.364;2023-11-19T03:41:24;5.68;;;2.80;;
82558;SDS011;72227;42.004;21.364;2023-11-19T03:43:50;4.03;;;2.22;;
82558;SDS011;72227;42.004;21.364;2023-11-19T03:46:19;4.78;;;2.15;;
82558;SDS011;72227;42.004;21.364;2023-11-19T03:48:48;4.68;;;2.20;;
82558;SDS011;72227;42.004;21.364;2023-11-19T03:57:06;3.30;;;1.83;;
82558;SDS011;72227;42.004;21.364;2023-11-19T03:59:32;5.88;;;2.67;;
82558;SDS011;72227;42.004;21.364;2023-11-19T04:01:58;5.25;;;2.22;;
82558;SDS011;72227;42.004;21.364;2023-11-19T04:04:26;4.55;;;2.03;;
82558;SDS011;72227;42.004;21.364;2023-11-19T04:06:53;4.82;;;2.63;;
82558;SDS011;72227;42.004;21.364;2023-11-19T04:09:19;4.60;;;2.40;;
82558;SDS011;72227;42.004;21.364;2023-11-19T04:11:45;4.20;;;2.30;;
82558;SDS011;72227;42.004;21.364;2023-11-19T04:14:12;4.72;;;2.10;;
82558;SDS011;72227;42.004;21.364;2023-11-19T04:16:38;4.65;;;2.40;;
82558;SDS011;72227;42.004;21.364;2023-11-19T04:19:05;4.47;;;2.42;;
82558;SDS011;72227;42.004;21.364;2023-11-19T04:21:31;4.68;;;2.45;;
82558;SDS011;72227;42.004;21.364;2023-11-19T04:23:58;4.47;;;2.25;;
82558;SDS011;72227;42.004;21.364;2023-11-19T04:26:24;5.28;;;2.90;;
82558;SDS011;72227;42.004;21.364;2023-11-19T04:28:50;4.10;;;2.20;;
82558;SDS011;72227;42.004;21.364;2023-11-19T04:31:16;4.90;;;2.05;;
82558;SDS011;72227;42.004;21.364;2023-11-19T04:33:43;5.20;;;2.55;;
82558;SDS011;72227;42.004;21.364;2023-11-19T04:36:09;4.68;;;2.47;;
82558;SDS011;72227;42.004;21.364;2023-11-19T04:38:35;4.75;;;2.47;;
82558;SDS011;72227;42.004;21.364;2023-11-19T04:41:04;3.97;;;2.20;;
82558;SDS011;72227;42.004;21.364;2023-11-19T04:43:30;4.65;;;2.33;;
82558;SDS011;72227;42.004;21.364;2023-11-19T04:45:57;5.43;;;2.67;;
82558;SDS011;72227;42.004;21.364;2023-11-19T04:48:23;4.10;;;2.13;;
82558;SDS011;72227;42.004;21.364;2023-11-19T04:50:49;4.45;;;2.42;;
82558;SDS011;72227;42.004;21.364;2023-11-19T04:53:19;4.70;;;2.42;;
82558;SDS011;72227;42.004;21.364;2023-11-19T04:55:45;4.40;;;2.00;;
82558;SDS011;72227;42.004;21.364;2023-11-19T05:04:15;5.28;;;3.03;;
82558;SDS011;72227;42.004;21.364;2023-11-19T05:06:43;4.88;;;2.33;;
82558;SDS011;72227;42.004;21.364;2023-11-19T05:09:09;6.60;;;2.83;;
82558;SDS011;72227;42.004;21.364;2023-11-19T05:11:38;4.93;;;2.63;;
82558;SDS011;72227;42.004;21.364;2023-11-19T05:14:04;22.23;;;7.65;;
82558;SDS011;72227;42.004;21.364;2023-11-19T05:16:30;32.95;;;10.20;;
82558;SDS011;72227;42.004;21.364;2023-11-19T05:18:57;19.77;;;7.55;;
82558;SDS011;72227;42.004;21.364;2023-11-19T05:21:23;9.35;;;4.63;;
82558;SDS011;72227;42.004;21.364;2023-11-19T05:23:51;5.40;;;2.90;;
82558;SDS011;72227;42.004;21.364;2023-11-19T05:26:20;5.53;;;2.83;;
82558;SDS011;72227;42.004;21.364;2023-11-19T05:28:46;6.45;;;3.05;;
82558;SDS011;72227;42.004;21.364;2023-11-19T05:31:12;5.05;;;2.78;;
82558;SDS011;72227;42.004;21.364;2023-11-19T05:33:39;5.95;;;3.40;;
82558;SDS011;72227;42.004;21.364;2023-11-19T05:36:05;6.03;;;3.90;;
82558;SDS011;72227;42.004;21.364;2023-11-19T05:38:33;4.70;;;2.70;;
82558;SDS011;72227;42.004;21.364;2023-11-19T05:40:59;6.05;;;3.13;;
82558;SDS011;72227;42.004;21.364;2023-11-19T05:43:25;6.85;;;4.72;;
82558;SDS011;72227;42.004;21.364;2023-11-19T05:45:51;5.82;;;3.50;;
82558;SDS011;72227;42.004;21.364;2023-11-19T05:48:17;6.68;;;4.55;;
82558;SDS011;72227;42.004;21.364;2023-11-19T05:50:43;6.70;;;3.28;;
82558;SDS011;72227;42.004;21.364;2023-11-19T05:53:09;12.18;;;4.97;;
82558;SDS011;72227;42.004;21.364;2023-11-19T05:55:52;10.80;;;5.70;;
82558;SDS011;72227;42.004;21.364;2023-11-19T05:58:24;7.85;;;4.90;;
82558;SDS011;72227;42.004;21.364;2023-11-19T06:03:54;9.05;;;5.20;;
82558;SDS011;72227;42.004;21.364;2023-11-19T06:06:20;8.90;;;5.28;;
82558;SDS011;72227;42.004;21.364;2023-11-19T06:08:46;8.07;;;4.25;;
82558;SDS011;72227;42.004;21.364;2023-11-19T06:11:12;7.82;;;4.57;;
82558;SDS011;72227;42.004;21.364;2023-11-19T06:13:43;8.07;;;3.40;;
82558;SDS011;72227;42.004;21.364;2023-11-19T06:22:30;10.95;;;5.30;;
82558;SDS011;72227;42.004;21.364;2023-11-19T06:24:56;7.22;;;4.57;;
82558;SDS011;72227;42.004;21.364;2023-11-19T06:27:23;9.00;;;4.47;;
82558;SDS011;72227;42.004;21.364;2023-11-19T06:29:49;12.40;;;5.72;;
82558;SDS011;72227;42.004;21.364;2023-11-19T06:32:15;6.43;;;3.65;;
82558;SDS011;72227;42.004;21.364;2023-11-19T06:34:42;7.45;;;4.57;;
82558;SDS011;72227;42.004;21.364;2023-11-19T06:37:08;8.00;;;4.95;;
82558;SDS011;72227;42.004;21.364;2023-11-19T06:39:34;12.25;;;7.32;;
82558;SDS011;72227;42.004;21.364;2023-11-19T07:23:22;10.07;;;7.25;;
82558;SDS011;72227;42.004;21.364;2023-11-19T07:25:48;6.82;;;4.07;;
82558;SDS011;72227;42.004;21.364;2023-11-19T07:28:17;5.03;;;2.50;;
82558;SDS011;72227;42.004;21.364;2023-11-19T07:30:43;6.20;;;3.15;;
82558;SDS011;72227;42.004;21.364;2023-11-19T07:33:09;6.30;;;3.80;;
82558;SDS011;72227;42.004;21.364;2023-11-19T07:35:35;8.63;;;4.20;;
82558;SDS011;72227;42.004;21.364;2023-11-19T07:38:01;6.30;;;3.70;;
82558;SDS011;72227;42.004;21.364;2023-11-19T07:40:27;6.00;;;3.42;;
82558;SDS011;72227;42.004;21.364;2023-11-19T07:42:53;9.07;;;5.13;;
82558;SDS011;72227;42.004;21.364;2023-11-19T07:45:19;7.32;;;4.63;;
82558;SDS011;72227;42.004;21.364;2023-11-19T07:47:46;7.65;;;3.78;;
82558;SDS011;72227;42.004;21.364;2023-11-19T07:50:12;5.00;;;2.95;;
82558;SDS011;72227;42.004;21.364;2023-11-19T07:52:39;7.47;;;5.60;;
82558;SDS011;72227;42.004;21.364;2023-11-19T07:55:05;6.72;;;4.63;;
82558;SDS011;72227;42.004;21.364;2023-11-19T07:57:31;6.60;;;3.70;;
82558;SDS011;72227;42.004;21.364;2023-11-19T07:59:57;6.60;;;3.83;;
82558;SDS011;72227;42.004;21.364;2023-11-19T08:02:23;5.78;;;3.25;;
82558;SDS011;72227;42.004;21.364;2023-11-19T08:04:50;7.38;;;3.47;;
82558;SDS011;72227;42.004;21.364;2023-11-19T08:07:17;5.47;;;3.25;;
82558;SDS011;72227;42.004;21.364;2023-11-19T08:09:47;6.63;;;3.53;;
82558;SDS011;72227;42.004;21.364;2023-11-19T08:12:13;5.90;;;2.90;;
82558;SDS011;72227;42.004;21.364;2023-11-19T08:14:40;6.20;;;3.15;;
82558;SDS011;72227;42.004;21.364;2023-11-19T08:17:07;5.07;;;2.85;;
82558;SDS011;72227;42.004;21.364;2023-11-19T08:19:33;5.80;;;3.28;;
82558;SDS011;72227;42.004;21.364;2023-11-19T08:21:59;4.93;;;2.58;;
82558;SDS011;72227;42.004;21.364;2023-11-19T08:24:25;9.13;;;4.05;;
82558;SDS011;72227;42.004;21.364;2023-11-19T08:26:51;5.43;;;2.63;;
82558;SDS011;72227;42.004;21.364;2023-11-19T08:29:17;7.43;;;4.25;;
82558;SDS011;72227;42.004;21.364;2023-11-19T08:31:43;5.97;;;2.90;;
82558;SDS011;72227;42.004;21.364;2023-11-19T08:34:09;15.40;;;6.20;;
82558;SDS011;72227;42.004;21.364;2023-11-19T08:36:37;5.38;;;2.42;;
82558;SDS011;72227;42.004;21.364;2023-11-19T08:39:03;4.60;;;2.10;;
82558;SDS011;72227;42.004;21.364;2023-11-19T08:41:29;6.93;;;4.20;;
82558;SDS011;72227;42.004;21.364;2023-11-19T08:43:55;9.00;;;5.10;;
82558;SDS011;72227;42.004;21.364;2023-11-19T08:46:21;4.57;;;2.33;;
82558;SDS011;72227;42.004;21.364;2023-11-19T08:48:47;5.57;;;2.80;;
82558;SDS011;72227;42.004;21.364;2023-11-19T08:51:13;7.18;;;3.88;;
82558;SDS011;72227;42.004;21.364;2023-11-19T08:53:39;5.93;;;3.25;;
82558;SDS011;72227;42.004;21.364;2023-11-19T08:56:05;5.97;;;2.80;;
82558;SDS011;72227;42.004;21.364;2023-11-19T08:58:32;5.22;;;2.83;;
82558;SDS011;72227;42.004;21.364;2023-11-19T09:00:58;5.47;;;2.85;;
82558;SDS011;72227;42.004;21.364;2023-11-19T09:03:24;5.25;;;3.28;;
82558;SDS011;72227;42.004;21.364;2023-11-19T09:05:55;4.40;;;2.13;;
82558;SDS011;72227;42.004;21.364;2023-11-19T09:08:21;5.85;;;2.38;;
82558;SDS011;72227;42.004;21.364;2023-11-19T09:10:47;6.32;;;3.55;;
82558;SDS011;72227;42.004;21.364;2023-11-19T09:13:13;7.07;;;3.20;;
82558;SDS011;72227;42.004;21.364;2023-11-19T09:15:40;4.95;;;2.72;;
82558;SDS011;72227;42.004;21.364;2023-11-19T09:18:07;5.78;;;3.05;;
82558;SDS011;72227;42.004;21.364;2023-11-19T09:20:33;4.93;;;2.53;;
82558;SDS011;72227;42.004;21.364;2023-11-19T09:23:03;6.78;;;3.63;;
82558;SDS011;72227;42.004;21.364;2023-11-19T09:25:30;5.20;;;2.72;;
82558;SDS011;72227;42.004;21.364;2023-11-19T09:27:56;6.78;;;2.72;;
82558;SDS011;72227;42.004;21.364;2023-11-19T09:30:22;6.20;;;3.28;;
82558;SDS011;72227;42.004;21.364;2023-11-19T09:32:48;6.95;;;3.35;;
82558;SDS011;72227;42.004;21.364;2023-11-19T09:35:14;5.32;;;2.72;;
82558;SDS011;72227;42.004;21.364;2023-11-19T09:37:41;5.85;;;3.15;;
82558;SDS011;72227;42.004;21.364;2023-11-19T09:40:07;6.15;;;2.75;;
82558;SDS011;72227;42.004;21.364;2023-11-19T09:42:38;5.72;;;2.95;;
82558;SDS011;72227;42.004;21.364;2023-11-19T09:45:06;7.10;;;3.17;;
82558;SDS011;72227;42.004;21.364;2023-11-19T09:47:38;6.45;;;2.50;;
82558;SDS011;72227;42.004;21.364;2023-11-19T09:50:05;6.25;;;3.00;;
82558;SDS011;72227;42.004;21.364;2023-11-19T09:52:31;6.80;;;2.20;;
82558;SDS011;72227;42.004;21.364;2023-11-19T09:54:57;4.93;;;2.47;;
82558;SDS011;72227;42.004;21.364;2023-11-19T09:57:23;5.28;;;2.53;;
82558;SDS011;72227;42.004;21.364;2023-11-19T09:59:49;4.93;;;2.53;;
82558;SDS011;72227;42.004;21.364;2023-11-19T10:02:16;6.15;;;3.03;;
82558;SDS011;72227;42.004;21.364;2023-11-19T10:04:43;5.18;;;2.67;;
82558;SDS011;72227;42.004;21.364;2023-11-19T10:07:10;5.75;;;3.22;;
82558;SDS011;72227;42.004;21.364;2023-11-19T10:09:36;5.28;;;2.80;;
82558;SDS011;72227;42.004;21.364;2023-11-19T10:12:02;6.28;;;2.80;;
82558;SDS011;72227;42.004;21.364;2023-11-19T10:14:28;5.68;;;2.95;;
82558;SDS011;72227;42.004;21.364;2023-11-19T10:16:58;6.38;;;3.53;;
82558;SDS011;72227;42.004;21.364;2023-11-19T10:19:29;6.05;;;2.90;;
82558;SDS011;72227;42.004;21.364;2023-11-19T10:21:55;6.93;;;3.40;;
82558;SDS011;72227;42.004;21.364;2023-11-19T10:24:33;6.40;;;3.75;;
82558;SDS011;72227;42.004;21.364;2023-11-19T10:27:02;6.60;;;3.47;;
82558;SDS011;72227;42.004;21.364;2023-11-19T10:29:31;7.10;;;3.33;;
82558;SDS011;72227;42.004;21.364;2023-11-19T10:31:57;6.50;;;3.40;;
82558;SDS011;72227;42.004;21.364;2023-11-19T10:34:25;8.50;;;4.75;;
82558;SDS011;72227;42.004;21.364;2023-11-19T10:36:51;8.90;;;3.78;;
82558;SDS011;72227;42.004;21.364;2023-11-19T10:39:17;7.57;;;3.90;;
82558;SDS011;72227;42.004;21.364;2023-11-19T10:41:43;6.65;;;3.60;;
82558;SDS011;72227;42.004;21.364;2023-11-19T10:44:10;6.50;;;3.40;;
82558;SDS011;72227;42.004;21.364;2023-11-19T10:46:36;7.30;;;4.68;;
82558;SDS011;72227;42.004;21.364;2023-11-19T10:49:04;5.72;;;3.47;;
82558;SDS011;72227;42.004;21.364;2023-11-19T10:51:31;7.45;;;3.88;;
82558;SDS011;72227;42.004;21.364;2023-11-19T10:54:00;8.48;;;4.38;;
82558;SDS011;72227;42.004;21.364;2023-11-19T10:56:29;7.28;;;3.22;;
82558;SDS011;72227;42.004;21.364;2023-11-19T10:58:56;6.63;;;4.18;;
82558;SDS011;72227;42.004;21.364;2023-11-19T11:01:24;6.70;;;3.20;;
82558;SDS011;72227;42.004;21.364;2023-11-19T11:03:52;6.60;;;3.72;;
82558;SDS011;72227;42.004;21.364;2023-11-19T11:06:19;8.50;;;2.72;;
82558;SDS011;72227;42.004;21.364;2023-11-19T11:08:47;7.03;;;3.75;;
82558;SDS011;72227;42.004;21.364;2023-11-19T11:11:15;6.78;;;3.97;;
82558;SDS011;72227;42.004;21.364;2023-11-19T11:13:47;7.53;;;4.25;;
82558;SDS011;72227;42.004;21.364;2023-11-19T11:16:18;6.53;;;3.20;;
82558;SDS011;72227;42.004;21.364;2023-11-19T11:18:45;4.70;;;2.92;;
82558;SDS011;72227;42.004;21.364;2023-11-19T11:21:13;5.05;;;2.72;;
82558;SDS011;72227;42.004;21.364;2023-11-19T11:26:24;6.55;;;3.88;;
82558;SDS011;72227;42.004;21.364;2023-11-19T11:36:28;7.35;;;3.55;;
82558;SDS011;72227;42.004;21.364;2023-11-19T11:38:54;6.57;;;3.22;;
82558;SDS011;72227;42.004;21.364;2023-11-19T11:41:25;10.10;;;5.60;;
82558;SDS011;72227;42.004;21.364;2023-11-19T11:43:52;9.40;;;4.75;;
82558;SDS011;72227;42.004;21.364;2023-11-19T11:49:00;7.25;;;3.67;;
82558;SDS011;72227;42.004;21.364;2023-11-19T11:54:10;6.10;;;3.65;;
82558;SDS011;72227;42.004;21.364;2023-11-19T11:56:37;6.55;;;3.95;;
82558;SDS011;72227;42.004;21.364;2023-11-19T11:59:07;8.15;;;5.90;;
82558;SDS011;72227;42.004;21.364;2023-11-19T12:01:33;6.30;;;3.45;;
82558;SDS011;72227;42.004;21.364;2023-11-19T12:04:00;7.03;;;3.45;;
82558;SDS011;72227;42.004;21.364;2023-11-19T12:06:27;6.43;;;3.78;;
82558;SDS011;72227;42.004;21.364;2023-11-19T12:08:59;8.35;;;5.32;;
82558;SDS011;72227;42.004;21.364;2023-11-19T12:11:25;8.15;;;4.40;;
82558;SDS011;72227;42.004;21.364;2023-11-19T12:13:54;9.63;;;5.57;;
82558;SDS011;72227;42.004;21.364;2023-11-19T12:16:21;11.30;;;5.85;;
82558;SDS011;72227;42.004;21.364;2023-11-19T12:18:47;7.90;;;5.35;;
82558;SDS011;72227;42.004;21.364;2023-11-19T12:21:29;9.35;;;4.90;;
82558;SDS011;72227;42.004;21.364;2023-11-19T12:23:55;8.68;;;5.30;;
82558;SDS011;72227;42.004;21.364;2023-11-19T12:26:33;8.98;;;4.25;;
82558;SDS011;72227;42.004;21.364;2023-11-19T12:29:00;8.35;;;5.13;;
82558;SDS011;72227;42.004;21.364;2023-11-19T12:31:28;7.25;;;4.28;;
82558;SDS011;72227;42.004;21.364;2023-11-19T12:33:55;8.52;;;5.90;;
82558;SDS011;72227;42.004;21.364;2023-11-19T12:36:21;10.48;;;6.15;;
82558;SDS011;72227;42.004;21.364;2023-11-19T12:38:48;9.20;;;5.35;;
82558;SDS011;72227;42.004;21.364;2023-11-19T12:41:14;6.90;;;4.20;;
82558;SDS011;72227;42.004;21.364;2023-11-19T12:46:21;5.78;;;3.67;;
82558;SDS011;72227;42.004;21.364;2023-11-19T12:48:47;6.38;;;3.28;;
82558;SDS011;72227;42.004;21.364;2023-11-19T12:51:14;7.80;;;4.72;;
82558;SDS011;72227;42.004;21.364;2023-11-19T12:53:50;7.07;;;3.45;;
82558;SDS011;72227;42.004;21.364;2023-11-19T12:56:19;6.22;;;3.17;;
82558;SDS011;72227;42.004;21.364;2023-11-19T12:58:45;5.90;;;3.10;;
82558;SDS011;72227;42.004;21.364;2023-11-19T13:01:15;7.50;;;3.58;;
82558;SDS011;72227;42.004;21.364;2023-11-19T13:03:41;7.85;;;4.60;;
82558;SDS011;72227;42.004;21.364;2023-11-19T13:06:08;6.07;;;3.75;;
82558;SDS011;72227;42.004;21.364;2023-11-19T13:08:46;6.55;;;4.13;;
82558;SDS011;72227;42.004;21.364;2023-11-19T13:11:34;6.28;;;3.67;;
82558;SDS011;72227;42.004;21.364;2023-11-19T13:14:01;6.13;;;3.50;;
82558;SDS011;72227;42.004;21.364;2023-11-19T13:16:33;7.90;;;4.63;;
82558;SDS011;72227;42.004;21.364;2023-11-19T13:19:01;6.88;;;3.28;;
82558;SDS011;72227;42.004;21.364;2023-11-19T13:21:28;8.00;;;3.80;;
82558;SDS011;72227;42.004;21.364;2023-11-19T13:23:56;10.98;;;5.50;;
82558;SDS011;72227;42.004;21.364;2023-11-19T13:26:23;8.38;;;4.13;;
82558;SDS011;72227;42.004;21.364;2023-11-19T13:28:49;5.43;;;2.58;;
82558;SDS011;72227;42.004;21.364;2023-11-19T13:31:15;7.30;;;3.20;;
82558;SDS011;72227;42.004;21.364;2023-11-19T13:33:41;10.65;;;4.80;;
82558;SDS011;72227;42.004;21.364;2023-11-19T13:36:07;8.43;;;4.78;;
82558;SDS011;72227;42.004;21.364;2023-11-19T13:38:34;11.20;;;4.75;;
82558;SDS011;72227;42.004;21.364;2023-11-19T13:41:01;8.77;;;4.97;;
82558;SDS011;72227;42.004;21.364;2023-11-19T13:43:27;11.60;;;6.40;;
82558;SDS011;72227;42.004;21.364;2023-11-19T13:45:56;8.20;;;5.47;;
82558;SDS011;72227;42.004;21.364;2023-11-19T13:48:26;9.82;;;6.22;;
82558;SDS011;72227;42.004;21.364;2023-11-19T13:50:54;10.45;;;5.25;;
82558;SDS011;72227;42.004;21.364;2023-11-19T13:53:20;9.45;;;5.45;;
82558;SDS011;72227;42.004;21.364;2023-11-19T13:55:46;10.85;;;4.70;;
82558;SDS011;72227;42.004;21.364;2023-11-19T13:58:15;6.38;;;3.33;;
82558;SDS011;72227;42.004;21.364;2023-11-19T14:00:41;7.15;;;3.90;;
82558;SDS011;72227;42.004;21.364;2023-11-19T14:03:08;7.18;;;3.28;;
82558;SDS011;72227;42.004;21.364;2023-11-19T14:05:37;7.20;;;3.70;;
82558;SDS011;72227;42.004;21.364;2023-11-19T14:08:07;7.03;;;3.10;;
82558;SDS011;72227;42.004;21.364;2023-11-19T14:10:39;7.47;;;3.50;;
82558;SDS011;72227;42.004;21.364;2023-11-19T14:13:06;7.65;;;4.20;;
82558;SDS011;72227;42.004;21.364;2023-11-19T14:15:32;9.13;;;4.90;;
82558;SDS011;72227;42.004;21.364;2023-11-19T14:17:58;12.25;;;7.03;;
82558;SDS011;72227;42.004;21.364;2023-11-19T14:20:24;12.70;;;7.10;;
82558;SDS011;72227;42.004;21.364;2023-11-19T14:22:50;14.32;;;7.40;;
82558;SDS011;72227;42.004;21.364;2023-11-19T14:25:18;9.77;;;5.93;;
82558;SDS011;72227;42.004;21.364;2023-11-19T14:27:44;15.93;;;8.18;;
82558;SDS011;72227;42.004;21.364;2023-11-19T14:30:12;19.63;;;10.95;;
82558;SDS011;72227;42.004;21.364;2023-11-19T14:32:38;12.82;;;6.90;;
82558;SDS011;72227;42.004;21.364;2023-11-19T14:35:05;11.85;;;6.55;;
82558;SDS011;72227;42.004;21.364;2023-11-19T14:37:31;9.90;;;5.93;;
82558;SDS011;72227;42.004;21.364;2023-11-19T14:39:57;13.13;;;6.85;;
82558;SDS011;72227;42.004;21.364;2023-11-19T14:42:24;15.45;;;9.38;;
82558;SDS011;72227;42.004;21.364;2023-11-19T14:44:50;16.92;;;10.63;;
82558;SDS011;72227;42.004;21.364;2023-11-19T14:47:20;16.52;;;12.30;;
82558;SDS011;72227;42.004;21.364;2023-11-19T14:49:46;17.90;;;13.40;;
82558;SDS011;72227;42.004;21.364;2023-11-19T14:52:13;21.40;;;17.13;;
82558;SDS011;72227;42.004;21.364;2023-11-19T14:54:39;20.88;;;10.30;;
82558;SDS011;72227;42.004;21.364;2023-11-19T14:57:05;22.02;;;13.80;;
82558;SDS011;72227;42.004;21.364;2023-11-19T14:59:33;27.40;;;16.13;;
82558;SDS011;72227;42.004;21.364;2023-11-19T15:02:00;17.17;;;8.32;;
82558;SDS011;72227;42.004;21.364;2023-11-19T15:04:26;20.08;;;10.77;;
82558;SDS011;72227;42.004;21.364;2023-11-19T15:06:52;16.05;;;10.88;;
82558;SDS011;72227;42.004;21.364;2023-11-19T15:09:18;16.02;;;11.00;;
82558;SDS011;72227;42.004;21.364;2023-11-19T15:11:46;15.77;;;11.20;;
82558;SDS011;72227;42.004;21.364;2023-11-19T15:14:13;16.70;;;11.73;;
82558;SDS011;72227;42.004;21.364;2023-11-19T15:16:44;18.52;;;12.07;;
82558;SDS011;72227;42.004;21.364;2023-11-19T15:19:10;16.50;;;11.88;;
82558;SDS011;72227;42.004;21.364;2023-11-19T15:21:43;55.50;;;24.90;;
82558;SDS011;72227;42.004;21.364;2023-11-19T15:24:09;15.02;;;10.50;;
82558;SDS011;72227;42.004;21.364;2023-11-19T15:26:36;20.50;;;12.70;;
82558;SDS011;72227;42.004;21.364;2023-11-19T15:29:02;21.67;;;14.73;;
82558;SDS011;72227;42.004;21.364;2023-11-19T15:31:29;25.15;;;17.63;;
82558;SDS011;72227;42.004;21.364;2023-11-19T15:33:55;18.25;;;12.43;;
82558;SDS011;72227;42.004;21.364;2023-11-19T15:36:21;14.75;;;9.45;;
82558;SDS011;72227;42.004;21.364;2023-11-19T15:38:47;17.45;;;12.40;;
82558;SDS011;72227;42.004;21.364;2023-11-19T15:41:13;15.48;;;11.38;;
82558;SDS011;72227;42.004;21.364;2023-11-19T15:43:40;15.45;;;10.32;;
82558;SDS011;72227;42.004;21.364;2023-11-19T15:46:07;14.18;;;10.32;;
82558;SDS011;72227;42.004;21.364;2023-11-19T15:48:33;17.13;;;11.75;;
82558;SDS011;72227;42.004;21.364;2023-11-19T15:50:59;16.00;;;10.82;;
82558;SDS011;72227;42.004;21.364;2023-11-19T15:53:25;22.20;;;13.63;;
82558;SDS011;72227;42.004;21.364;2023-11-19T15:55:52;32.55;;;21.95;;
82558;SDS011;72227;42.004;21.364;2023-11-19T15:58:19;26.10;;;16.40;;
82558;SDS011;72227;42.004;21.364;2023-11-19T16:00:45;30.63;;;19.45;;
82558;SDS011;72227;42.004;21.364;2023-11-19T16:03:12;49.00;;;21.38;;